Impacts TAF Board INFO
FOR SITUATIONAL AWARENESS. NOT TO BE USED FOR FLIGHT PLANNING PURPOSES.
IDs:

KMCO - Orlando Intl, FL, US

Issued at 0305 UTC 16 Dec 2017
Updated at 0327 UTC 16 Dec 2017
Potential Impact None Slight Moderate High
Time0323Z 16/04Z 16/05Z 16/06Z 16/07Z 16/08Z 16/09Z 16/10Z 16/11Z 16/12Z 16/13Z 16/14Z 16/15Z 16/16Z>>
Type OBS PRVL PRVL PRVL PRVL PRVL PRVL PRVL PRVL PRVL PRVL PRVL PRVL PRVL
VIS 10 >6 >6 >6 >6 >6 >6 >6 >6 >6 >6 >6 >6 >6
CIG -- -- -- -- -- -- -- -- -- -- -- -- -- 250
Cover FEW SKC SKC SKC SKC SCT SCT SCT SCT SCT SCT SCT SCT BKN
FltCat VFR VFR VFR VFR VFR VFR VFR VFR VFR VFR VFR VFR VFR VFR
WX -- -- -- -- -- -- -- -- -- -- -- -- -- --
WDir 230 300 300 300 300 340 340 340 340 340 340 340 340 20
WSpd 5 4 4 4 4 4 4 4 4 4 4 4 4 8
WGst -- -- -- -- -- -- -- -- -- -- -- -- -- --

Raw TAF
KMCO 160305Z 1603/1706 30004KT P6SM SKC
  FM160800 34004KT P6SM FEW025 SCT250
  FM161600 02008KT P6SM SCT060 BKN250
  FM170000 06004KT P6SM FEW040 BKN250


Raw METAR
KMCO 160323Z 23005KT 10SM FEW004 17/12 A3017 RMK AO2 FU FEW004 T01670117
KMCO 160253Z 29004KT 10SM CLR 16/11 A3017 RMK AO2 SLP213 T01610111 52017
KMCO 160153Z 31005KT 10SM CLR 17/11 A3015 RMK AO2 SLP208 T01670106
KMCO 160053Z 32005KT 10SM FEW300 18/11 A3013 RMK AO2 SLP202 T01830106

METAR Board
Radar Display
Forecast Discussion

FOR SITUATIONAL AWARENESS. NOT TO BE USED FOR FLIGHT PLANNING PURPOSES.